createdAt,value
2022-07-29T00:00:00.422Z,16.60
2022-07-29T00:02:28.177Z,16.50
2022-07-29T00:04:55.288Z,16.40
2022-07-29T00:07:22.209Z,16.40
2022-07-29T00:09:50.758Z,16.40
2022-07-29T00:12:21.332Z,16.40
2022-07-29T00:14:53.664Z,16.40
2022-07-29T00:17:20.733Z,16.30
2022-07-29T00:19:47.642Z,16.30
2022-07-29T00:22:14.561Z,16.30
2022-07-29T00:24:41.449Z,16.30
2022-07-29T00:27:08.415Z,16.30
2022-07-29T00:29:35.565Z,16.30
2022-07-29T00:32:03.463Z,16.30
2022-07-29T00:34:49.409Z,16.30
2022-07-29T00:37:16.263Z,16.30
2022-07-29T00:39:43.591Z,16.30
2022-07-29T00:42:10.992Z,16.30
2022-07-29T00:44:41.783Z,16.30
2022-07-29T00:47:09.366Z,16.30
2022-07-29T00:49:36.368Z,16.30
2022-07-29T00:52:04.634Z,16.30
2022-07-29T00:54:31.537Z,16.30
2022-07-29T00:56:59.516Z,16.30
2022-07-29T00:59:35.159Z,16.30
2022-07-29T01:02:05.644Z,16.40
2022-07-29T01:04:32.715Z,16.40
2022-07-29T01:06:59.691Z,16.40
2022-07-29T01:09:35.041Z,16.40
2022-07-29T01:12:18.097Z,16.40
2022-07-29T01:14:45.478Z,16.40
2022-07-29T01:17:15.347Z,16.40
2022-07-29T01:20:04.728Z,16.40
2022-07-29T01:22:37.627Z,16.40
2022-07-29T01:25:23.337Z,16.50
2022-07-29T01:28:20.994Z,16.50
2022-07-29T01:30:51.772Z,16.50
2022-07-29T01:33:38.239Z,16.50
2022-07-29T01:36:08.604Z,16.50
2022-07-29T01:38:35.470Z,16.60
2022-07-29T01:41:16.402Z,16.60
2022-07-29T01:43:46.114Z,16.60
2022-07-29T01:46:18.808Z,16.60
2022-07-29T01:48:50.255Z,16.60
2022-07-29T01:51:28.373Z,16.60
2022-07-29T01:54:10.233Z,16.60
2022-07-29T01:56:37.418Z,16.60
2022-07-29T01:59:04.615Z,16.60
2022-07-29T02:01:32.393Z,16.50
2022-07-29T02:03:59.299Z,16.50
2022-07-29T02:06:26.150Z,16.50
2022-07-29T02:08:53.008Z,16.50
2022-07-29T02:11:19.866Z,16.50
2022-07-29T02:13:46.740Z,16.50
2022-07-29T02:16:13.684Z,16.50
2022-07-29T02:18:42.023Z,16.50
2022-07-29T02:21:15.080Z,16.50
2022-07-29T02:23:50.607Z,16.40
2022-07-29T02:26:19.232Z,16.40
2022-07-29T02:28:46.085Z,16.30
2022-07-29T02:31:13.075Z,16.30
2022-07-29T02:33:39.993Z,16.30
2022-07-29T02:36:07.061Z,16.20
2022-07-29T02:38:52.176Z,16.20
2022-07-29T02:41:39.475Z,16.10
2022-07-29T02:44:21.552Z,16.00
2022-07-29T02:46:56.977Z,15.90
2022-07-29T02:49:26.848Z,15.80
2022-07-29T02:51:59.632Z,15.70
2022-07-29T02:54:35.887Z,15.50
2022-07-29T02:57:07.486Z,15.40
2022-07-29T02:59:35.420Z,15.30
2022-07-29T03:02:02.381Z,15.20
2022-07-29T03:04:30.307Z,15.20
2022-07-29T03:06:59.117Z,15.10
2022-07-29T03:09:26.017Z,15.00
2022-07-29T03:11:55.210Z,14.90
2022-07-29T03:14:22.246Z,14.90
2022-07-29T03:16:49.607Z,14.80
2022-07-29T03:19:16.568Z,14.70
2022-07-29T03:21:43.451Z,14.70
2022-07-29T03:24:10.967Z,14.60
2022-07-29T03:26:38.040Z,14.60
2022-07-29T03:29:04.899Z,14.50
2022-07-29T03:31:33.372Z,14.50
2022-07-29T03:34:00.510Z,14.40
2022-07-29T03:36:27.496Z,14.40
2022-07-29T03:38:55.680Z,14.30
2022-07-29T03:41:22.748Z,14.30
2022-07-29T03:43:50.006Z,14.20
2022-07-29T03:46:16.986Z,14.10
2022-07-29T03:48:44.233Z,14.10
2022-07-29T03:51:11.120Z,14.10
2022-07-29T03:53:38.368Z,14.00
2022-07-29T03:56:05.385Z,14.00
2022-07-29T03:58:32.222Z,13.90
2022-07-29T04:00:59.060Z,13.90
2022-07-29T04:03:26.024Z,13.90
2022-07-29T04:06:03.701Z,13.80
2022-07-29T04:08:30.600Z,13.80
2022-07-29T04:10:57.536Z,13.70
2022-07-29T04:13:24.401Z,13.70
2022-07-29T04:15:51.287Z,13.70
2022-07-29T04:18:18.187Z,13.70
2022-07-29T04:20:45.026Z,13.70
2022-07-29T04:23:11.866Z,13.60
2022-07-29T04:25:39.852Z,13.60
2022-07-29T04:28:07.144Z,13.50
2022-07-29T04:30:34.591Z,13.60
2022-07-29T04:33:02.323Z,13.50
2022-07-29T04:35:30.195Z,13.50
2022-07-29T04:37:57.091Z,13.50
2022-07-29T04:40:23.983Z,13.50
2022-07-29T04:42:50.834Z,13.50
2022-07-29T04:45:22.338Z,13.50
2022-07-29T04:47:49.966Z,13.50
2022-07-29T04:50:16.819Z,13.60
2022-07-29T04:52:43.703Z,13.60
2022-07-29T04:55:10.653Z,13.60
2022-07-29T04:57:37.490Z,13.60
2022-07-29T05:00:05.988Z,13.60
2022-07-29T05:02:32.943Z,13.60
2022-07-29T05:04:59.798Z,13.60
2022-07-29T05:07:26.600Z,13.70
2022-07-29T05:09:54.077Z,13.80
2022-07-29T05:12:21.109Z,13.80
2022-07-29T05:14:48.013Z,13.90
2022-07-29T05:17:14.892Z,14.10
2022-07-29T05:19:41.742Z,14.50
2022-07-29T05:22:08.605Z,15.10
2022-07-29T05:24:35.486Z,15.60
2022-07-29T05:27:02.344Z,16.10
2022-07-29T05:29:43.717Z,16.50
2022-07-29T05:32:12.206Z,16.90
2022-07-29T05:34:50.426Z,17.30
2022-07-29T05:37:21.949Z,17.70
2022-07-29T05:39:56.827Z,18.00
2022-07-29T05:42:25.192Z,18.30
2022-07-29T05:44:52.092Z,18.70
2022-07-29T05:47:19.058Z,19.00
2022-07-29T05:49:46.330Z,19.30
2022-07-29T05:52:14.276Z,19.60
2022-07-29T05:54:41.142Z,19.90
2022-07-29T05:57:08.087Z,20.20
2022-07-29T05:59:38.497Z,20.30
2022-07-29T06:02:06.328Z,20.30
2022-07-29T06:04:34.674Z,20.20
2022-07-29T06:07:01.948Z,20.10
2022-07-29T06:09:29.322Z,20.00
2022-07-29T06:11:56.351Z,19.90
2022-07-29T06:14:23.199Z,20.00
2022-07-29T06:16:50.219Z,20.00
2022-07-29T06:19:17.117Z,20.20
2022-07-29T06:21:44.850Z,20.20
2022-07-29T06:24:13.875Z,20.20
2022-07-29T06:26:41.327Z,20.20
2022-07-29T06:29:08.527Z,20.10
2022-07-29T06:31:35.562Z,20.10
2022-07-29T06:34:02.400Z,20.20
2022-07-29T06:36:30.618Z,20.20
2022-07-29T06:38:57.551Z,20.30
2022-07-29T06:41:24.972Z,20.40
2022-07-29T06:43:54.533Z,20.40
2022-07-29T06:46:22.774Z,20.50
2022-07-29T06:48:50.009Z,20.60
2022-07-29T06:51:22.373Z,20.60
2022-07-29T06:53:58.182Z,20.40
2022-07-29T06:56:27.577Z,20.40
2022-07-29T06:58:54.546Z,20.50
2022-07-29T07:01:21.852Z,20.60
2022-07-29T07:03:48.910Z,20.60
2022-07-29T07:06:15.827Z,20.70
2022-07-29T07:08:42.693Z,20.70
2022-07-29T07:11:09.916Z,20.70
2022-07-29T07:13:37.181Z,20.90
2022-07-29T07:16:04.690Z,21.10
2022-07-29T07:18:31.648Z,21.20
2022-07-29T07:20:59.695Z,21.20
2022-07-29T07:23:26.551Z,21.00
2022-07-29T07:25:53.564Z,21.00
2022-07-29T07:28:24.931Z,20.90
2022-07-29T07:30:52.859Z,20.90
2022-07-29T07:33:20.037Z,20.90
2022-07-29T07:35:47.148Z,20.80
2022-07-29T07:38:14.049Z,20.70
2022-07-29T07:40:41.461Z,20.60
2022-07-29T07:43:08.365Z,20.60
2022-07-29T07:45:35.442Z,20.60
2022-07-29T07:48:02.317Z,20.60
2022-07-29T07:50:29.344Z,20.70
2022-07-29T07:52:58.942Z,20.70
2022-07-29T07:55:26.612Z,20.90
2022-07-29T07:57:53.672Z,20.90
2022-07-29T08:00:22.922Z,21.00
2022-07-29T08:02:51.325Z,21.10
2022-07-29T08:05:18.504Z,21.10
2022-07-29T08:07:46.623Z,21.10
2022-07-29T08:10:14.936Z,21.20
2022-07-29T08:12:42.906Z,21.20
2022-07-29T08:15:10.287Z,21.00
2022-07-29T08:17:37.237Z,20.90
2022-07-29T08:20:04.578Z,20.80
2022-07-29T08:22:31.446Z,20.80
2022-07-29T08:24:58.262Z,20.80
2022-07-29T08:27:42.955Z,20.90
2022-07-29T08:30:11.306Z,20.90
2022-07-29T08:32:55.009Z,21.10
2022-07-29T08:35:23.594Z,21.20
2022-07-29T08:37:50.538Z,21.10
2022-07-29T08:40:17.538Z,21.10
2022-07-29T08:42:44.451Z,21.10
2022-07-29T08:45:11.708Z,21.10
2022-07-29T08:47:40.869Z,21.10
2022-07-29T08:50:09.017Z,21.00
2022-07-29T08:52:40.027Z,21.00
2022-07-29T08:55:11.026Z,21.00
2022-07-29T08:57:38.856Z,21.00
2022-07-29T09:00:18.285Z,21.10
2022-07-29T09:02:46.746Z,21.10
2022-07-29T09:05:14.451Z,21.10
2022-07-29T09:07:44.310Z,21.10
2022-07-29T09:10:11.392Z,21.10
2022-07-29T09:12:38.513Z,21.10
2022-07-29T09:15:05.756Z,21.10
2022-07-29T09:17:46.980Z,21.10
2022-07-29T09:20:15.659Z,21.20
2022-07-29T09:22:43.012Z,21.20
2022-07-29T09:25:10.115Z,21.20
2022-07-29T09:27:37.204Z,21.20
2022-07-29T09:30:11.491Z,21.10
2022-07-29T09:32:58.293Z,21.30
2022-07-29T09:35:26.157Z,21.30
2022-07-29T09:37:53.145Z,21.40
2022-07-29T09:40:25.103Z,21.50
2022-07-29T09:42:56.614Z,21.50
2022-07-29T09:45:31.023Z,21.50
2022-07-29T09:48:01.400Z,21.50
2022-07-29T09:50:41.731Z,21.60
2022-07-29T09:53:10.552Z,21.70
2022-07-29T09:55:53.228Z,21.60
2022-07-29T09:58:21.439Z,21.70
2022-07-29T10:00:49.133Z,21.80
2022-07-29T10:03:16.986Z,21.90
2022-07-29T10:05:44.719Z,21.90
2022-07-29T10:08:13.384Z,22.00
2022-07-29T10:10:42.664Z,22.00
2022-07-29T10:13:15.194Z,22.00
2022-07-29T10:15:45.340Z,21.90
2022-07-29T10:18:12.996Z,22.10
2022-07-29T10:20:40.288Z,22.10
2022-07-29T10:23:07.398Z,22.30
2022-07-29T10:25:34.347Z,22.40
2022-07-29T10:28:01.257Z,22.30
2022-07-29T10:30:28.440Z,22.30
2022-07-29T10:33:04.411Z,22.40
2022-07-29T10:35:41.464Z,22.40
2022-07-29T10:42:08.356Z,22.40
2022-07-29T10:44:36.146Z,22.30
2022-07-29T10:47:04.486Z,22.30
2022-07-29T10:49:31.656Z,22.40
2022-07-29T10:52:11.512Z,22.40
2022-07-29T10:54:39.730Z,22.30
2022-07-29T10:57:16.373Z,22.30
2022-07-29T10:59:53.023Z,22.30
2022-07-29T11:02:41.653Z,22.40
2022-07-29T11:05:12.907Z,22.40
2022-07-29T11:10:31.415Z,22.70
2022-07-29T11:12:59.257Z,22.90
2022-07-29T11:15:28.608Z,22.90
2022-07-29T11:17:59.538Z,23.10
2022-07-29T11:20:38.303Z,23.20
2022-07-29T11:23:33.723Z,23.20
2022-07-29T11:26:14.562Z,23.30
2022-07-29T11:28:53.496Z,23.20
2022-07-29T11:31:36.432Z,23.30
2022-07-29T11:34:29.688Z,23.40
2022-07-29T11:37:12.546Z,23.50
2022-07-29T11:39:47.801Z,23.70
2022-07-29T11:42:17.953Z,23.70
2022-07-29T11:45:42.758Z,23.80
2022-07-29T11:48:05.333Z,23.90
2022-07-29T11:50:48.301Z,23.90
2022-07-29T11:53:16.218Z,23.90
2022-07-29T11:55:51.663Z,23.70
2022-07-29T11:58:25.236Z,23.60
2022-07-29T12:00:53.243Z,23.80
2022-07-29T12:03:35.138Z,23.90
2022-07-29T12:06:02.617Z,24.10
2022-07-29T12:08:29.578Z,24.10
2022-07-29T12:10:56.865Z,24.20
2022-07-29T12:13:37.152Z,24.20
2022-07-29T12:16:05.457Z,24.40
2022-07-29T12:18:32.669Z,24.40
2022-07-29T12:21:05.852Z,24.40
2022-07-29T12:23:35.812Z,24.60
2022-07-29T12:26:25.521Z,24.70
2022-07-29T12:28:52.741Z,24.70
2022-07-29T12:31:43.734Z,24.80
2022-07-29T12:34:08.411Z,24.90
2022-07-29T12:36:37.337Z,24.90
2022-07-29T12:39:04.891Z,24.90
2022-07-29T12:41:31.878Z,25.00
2022-07-29T12:43:58.752Z,25.00
2022-07-29T12:46:25.720Z,25.10
2022-07-29T12:48:57.723Z,25.20
2022-07-29T12:51:32.420Z,25.20
2022-07-29T12:54:12.721Z,25.20
2022-07-29T12:56:44.398Z,25.20
2022-07-29T12:59:22.355Z,25.40
2022-07-29T13:01:52.909Z,25.30
2022-07-29T13:04:46.105Z,25.50
2022-07-29T13:07:15.221Z,25.40
2022-07-29T13:09:46.655Z,25.50
2022-07-29T13:12:14.385Z,25.50
2022-07-29T13:14:43.415Z,25.50
2022-07-29T13:17:15.206Z,25.70
2022-07-29T13:19:43.154Z,26.00
2022-07-29T13:22:11.192Z,26.40
2022-07-29T13:25:07.707Z,26.70
2022-07-29T13:27:35.611Z,26.80
2022-07-29T13:30:05.390Z,26.80
2022-07-29T13:32:32.433Z,26.80
2022-07-29T13:35:01.619Z,26.80
2022-07-29T13:37:33.965Z,26.80
2022-07-29T13:40:01.180Z,26.80
2022-07-29T13:42:28.098Z,26.80
2022-07-29T13:44:54.946Z,26.70
2022-07-29T13:47:22.471Z,26.60
2022-07-29T13:50:00.244Z,26.60
2022-07-29T13:52:27.112Z,26.70
2022-07-29T13:54:54.000Z,26.80
2022-07-29T13:57:20.881Z,26.80
2022-07-29T13:59:53.433Z,26.90
2022-07-29T14:02:21.067Z,26.90
2022-07-29T14:04:52.166Z,27.00
2022-07-29T14:07:19.266Z,27.10
2022-07-29T14:09:46.194Z,27.00
2022-07-29T14:12:13.147Z,26.90
2022-07-29T14:14:40.099Z,26.90
2022-07-29T14:17:09.995Z,26.90
2022-07-29T14:19:37.006Z,27.00
2022-07-29T14:22:05.234Z,27.10
2022-07-29T14:24:32.377Z,27.00
2022-07-29T14:27:01.521Z,27.00
2022-07-29T14:29:36.872Z,26.90
2022-07-29T14:32:07.556Z,26.80
2022-07-29T14:34:35.778Z,26.80
2022-07-29T14:37:03.875Z,26.70
2022-07-29T14:39:31.779Z,26.60
2022-07-29T14:41:59.301Z,26.50
2022-07-29T14:44:32.267Z,26.30
2022-07-29T14:47:07.705Z,26.40
2022-07-29T14:49:35.341Z,26.50
2022-07-29T14:52:02.230Z,26.60
2022-07-29T14:54:29.342Z,26.60
2022-07-29T14:56:58.480Z,26.50
2022-07-29T14:59:26.205Z,26.40
2022-07-29T15:01:53.281Z,26.30
2022-07-29T15:04:20.373Z,26.20
2022-07-29T15:06:47.295Z,26.30
2022-07-29T15:09:14.345Z,26.30
2022-07-29T15:11:41.193Z,26.30
2022-07-29T15:14:08.140Z,26.20
2022-07-29T15:16:41.999Z,26.20
2022-07-29T15:19:11.153Z,26.20
2022-07-29T15:21:48.074Z,26.10
2022-07-29T15:24:17.402Z,26.10
2022-07-29T15:26:44.765Z,26.00
2022-07-29T15:29:11.595Z,26.00
2022-07-29T15:31:38.588Z,26.00
2022-07-29T15:34:06.557Z,26.00
2022-07-29T15:36:51.495Z,26.00
2022-07-29T15:39:19.476Z,26.10
2022-07-29T15:41:46.583Z,26.10
2022-07-29T15:44:13.847Z,26.30
2022-07-29T15:46:59.754Z,26.40
2022-07-29T15:49:48.559Z,26.50
2022-07-29T15:52:24.933Z,26.60
2022-07-29T15:54:53.845Z,26.70
2022-07-29T15:57:21.106Z,26.70
2022-07-29T15:59:47.982Z,26.80
2022-07-29T16:02:14.848Z,26.80
2022-07-29T16:04:41.701Z,26.80
2022-07-29T16:07:08.724Z,26.90
2022-07-29T16:09:35.671Z,26.80
2022-07-29T16:12:02.596Z,26.90
2022-07-29T16:14:41.589Z,26.80
2022-07-29T16:17:08.724Z,26.80
2022-07-29T16:19:41.177Z,26.70
2022-07-29T16:22:08.059Z,26.70
2022-07-29T16:24:34.994Z,26.70
2022-07-29T16:27:02.261Z,26.70
2022-07-29T16:29:29.320Z,26.70
2022-07-29T16:31:56.410Z,26.70
2022-07-29T16:34:23.353Z,26.70
2022-07-29T16:36:50.351Z,26.80
2022-07-29T16:39:17.382Z,26.80
2022-07-29T16:41:44.282Z,26.90
2022-07-29T16:44:11.165Z,27.00
2022-07-29T16:46:39.071Z,27.10
2022-07-29T16:49:08.496Z,27.20
2022-07-29T16:51:35.485Z,27.30
2022-07-29T16:54:02.331Z,27.30
2022-07-29T16:56:29.253Z,27.20
2022-07-29T16:58:58.190Z,27.20
2022-07-29T17:01:25.131Z,27.20
2022-07-29T17:04:07.217Z,27.20
2022-07-29T17:06:35.393Z,27.20
2022-07-29T17:09:03.641Z,27.20
2022-07-29T17:11:53.799Z,27.10
2022-07-29T17:14:17.382Z,27.00
2022-07-29T17:16:51.751Z,27.00
2022-07-29T17:19:27.716Z,26.90
2022-07-29T17:22:03.281Z,26.80
2022-07-29T17:24:33.863Z,26.60
2022-07-29T17:27:01.197Z,26.50
2022-07-29T17:29:28.223Z,26.40
2022-07-29T17:31:55.157Z,26.20
2022-07-29T17:34:22.025Z,26.00
2022-07-29T17:36:48.931Z,25.80
2022-07-29T17:39:15.840Z,25.70
2022-07-29T17:41:44.902Z,25.60
2022-07-29T17:44:13.142Z,25.40
2022-07-29T17:46:40.558Z,25.30
2022-07-29T17:49:07.623Z,25.20
2022-07-29T17:51:34.560Z,25.10
2022-07-29T17:54:01.507Z,25.10
2022-07-29T17:56:28.420Z,25.00
2022-07-29T17:58:55.370Z,25.00
2022-07-29T18:01:23.868Z,24.90
2022-07-29T18:03:50.921Z,24.90
2022-07-29T18:06:18.123Z,24.90
2022-07-29T18:08:47.613Z,24.90
2022-07-29T18:11:15.137Z,24.80
2022-07-29T18:13:42.195Z,24.80
2022-07-29T18:16:10.104Z,24.70
2022-07-29T18:18:37.048Z,24.70
2022-07-29T18:21:04.214Z,24.60
2022-07-29T18:23:31.480Z,24.50
2022-07-29T18:25:58.405Z,24.40
2022-07-29T18:28:28.534Z,24.30
2022-07-29T18:30:55.428Z,24.30
2022-07-29T18:33:22.917Z,24.30
2022-07-29T18:35:50.840Z,24.30
2022-07-29T18:38:17.841Z,24.20
2022-07-29T18:40:46.030Z,24.20
2022-07-29T18:43:13.740Z,24.10
2022-07-29T18:45:42.525Z,24.00
2022-07-29T18:48:11.912Z,23.90
2022-07-29T18:50:40.534Z,23.70
2022-07-29T18:53:07.619Z,23.70
2022-07-29T18:55:34.546Z,23.60
2022-07-29T18:58:01.422Z,23.60
2022-07-29T19:00:28.438Z,23.60
2022-07-29T19:02:55.845Z,23.50
2022-07-29T19:05:23.259Z,23.50
2022-07-29T19:07:50.137Z,23.40
2022-07-29T19:10:17.228Z,23.40
2022-07-29T19:12:44.162Z,23.40
2022-07-29T19:15:11.435Z,23.40
2022-07-29T19:17:38.915Z,23.40
2022-07-29T19:20:07.281Z,23.30
2022-07-29T19:22:34.527Z,23.30
2022-07-29T19:25:01.391Z,23.30
2022-07-29T19:27:28.303Z,23.20
2022-07-29T19:29:58.932Z,23.20
2022-07-29T19:32:26.554Z,23.10
2022-07-29T19:35:12.269Z,23.10
2022-07-29T19:37:39.222Z,23.00
2022-07-29T19:40:06.965Z,22.90
2022-07-29T19:42:33.968Z,22.80
2022-07-29T19:45:00.904Z,22.80
2022-07-29T19:47:27.849Z,22.70
2022-07-29T19:49:54.664Z,22.60
2022-07-29T19:52:21.531Z,22.50
2022-07-29T19:54:48.432Z,22.50
2022-07-29T19:57:15.297Z,22.40
2022-07-29T19:59:42.195Z,22.30
2022-07-29T20:02:12.442Z,22.30
2022-07-29T20:04:39.622Z,22.20
2022-07-29T20:07:06.758Z,22.10
2022-07-29T20:09:33.782Z,22.00
2022-07-29T20:12:00.677Z,22.00
2022-07-29T20:14:27.526Z,21.90
2022-07-29T20:16:54.542Z,21.70
2022-07-29T20:19:21.564Z,21.70
2022-07-29T20:21:48.486Z,21.60
2022-07-29T20:24:15.357Z,21.50
2022-07-29T20:26:42.231Z,21.50
2022-07-29T20:29:09.277Z,21.40
2022-07-29T20:31:36.241Z,21.30
2022-07-29T20:34:03.330Z,21.30
2022-07-29T20:36:30.263Z,21.20
2022-07-29T20:38:57.448Z,21.10
2022-07-29T20:41:24.350Z,21.10
2022-07-29T20:43:51.429Z,21.10
2022-07-29T20:46:18.548Z,21.10
2022-07-29T20:48:46.970Z,21.10
2022-07-29T20:51:14.509Z,21.00
2022-07-29T20:53:41.534Z,21.00
2022-07-29T20:56:08.455Z,21.00
2022-07-29T20:58:36.596Z,21.00
2022-07-29T21:01:03.998Z,20.90
2022-07-29T21:03:30.936Z,20.90
2022-07-29T21:05:57.786Z,20.90
2022-07-29T21:08:24.724Z,20.80
2022-07-29T21:10:51.602Z,20.80
2022-07-29T21:13:19.776Z,20.80
2022-07-29T21:15:49.660Z,20.70
2022-07-29T21:18:36.882Z,20.70
2022-07-29T21:21:04.774Z,20.60
2022-07-29T21:23:31.690Z,20.60
2022-07-29T21:25:58.664Z,20.50
2022-07-29T21:28:40.854Z,20.50
2022-07-29T21:31:12.498Z,20.40
2022-07-29T21:33:41.017Z,20.40
2022-07-29T21:36:35.408Z,20.30
2022-07-29T21:38:55.546Z,20.30
2022-07-29T21:41:22.547Z,20.20
2022-07-29T21:43:49.567Z,20.20
2022-07-29T21:46:18.147Z,20.20
2022-07-29T21:48:45.149Z,20.20
2022-07-29T21:51:12.152Z,20.10
2022-07-29T21:53:39.015Z,20.10
2022-07-29T21:56:07.650Z,20.10
2022-07-29T21:58:41.377Z,20.10
2022-07-29T22:01:08.264Z,20.00
2022-07-29T22:03:35.191Z,20.10
2022-07-29T22:06:02.084Z,20.00
2022-07-29T22:08:29.002Z,20.10
2022-07-29T22:10:55.898Z,20.10
2022-07-29T22:13:22.755Z,20.10
2022-07-29T22:15:50.830Z,20.10
2022-07-29T22:18:21.074Z,20.10
2022-07-29T22:20:49.429Z,20.10
2022-07-29T22:23:16.265Z,20.10
2022-07-29T22:25:43.161Z,20.00
2022-07-29T22:28:10.036Z,20.00
2022-07-29T22:30:37.116Z,19.90
2022-07-29T22:33:04.135Z,19.80
2022-07-29T22:35:31.010Z,19.80
2022-07-29T22:37:57.872Z,19.70
2022-07-29T22:40:30.939Z,19.60
2022-07-29T22:42:59.659Z,19.50
2022-07-29T22:45:26.520Z,19.50
2022-07-29T22:47:59.141Z,19.40
2022-07-29T22:50:26.538Z,19.30
2022-07-29T22:52:53.386Z,19.30
2022-07-29T22:55:20.323Z,19.20
2022-07-29T22:57:47.185Z,19.20
2022-07-29T23:00:14.470Z,19.10
2022-07-29T23:02:41.748Z,19.10
2022-07-29T23:05:09.134Z,19.00
2022-07-29T23:07:36.160Z,19.00
2022-07-29T23:10:03.144Z,18.90
2022-07-29T23:12:30.030Z,18.90
2022-07-29T23:14:56.919Z,18.80
2022-07-29T23:17:23.833Z,18.70
2022-07-29T23:19:50.771Z,18.70
2022-07-29T23:22:18.531Z,18.60
2022-07-29T23:24:45.614Z,18.60
2022-07-29T23:27:12.468Z,18.60
2022-07-29T23:29:39.469Z,18.60
2022-07-29T23:32:06.444Z,18.50
2022-07-29T23:34:33.278Z,18.50
2022-07-29T23:37:00.360Z,18.50
2022-07-29T23:39:27.401Z,18.40
2022-07-29T23:41:54.270Z,18.40
2022-07-29T23:44:21.356Z,18.30
2022-07-29T23:46:48.243Z,18.30
2022-07-29T23:49:15.350Z,18.20
2022-07-29T23:51:42.277Z,18.20
2022-07-29T23:54:09.162Z,18.20
2022-07-29T23:56:36.038Z,18.10
2022-07-29T23:59:05.767Z,18.10
